Terminal Aerodrome Forecast
Issued by NWS Charleston, WV

Current Version | Previous Version | Text Only | Print | Product List | Glossary Off
Versions: 1 2 3 4 5 6 7 8 9 10 11 12 13 14 15 16 17 18 19 20 21 22 23

494
FTUS41 KRLX 091120
TAFEKN
TAF
KEKN 091120Z 0912/1012 26009KT 1/2SM FG SCT001 OVC008
      TEMPO 0912/0916 2SM -SHSN OVC015
     FM091600 27009KT 3/4SM -SHSN HZ SCT001 OVC008
     FM092300 27010G20KT 1/2SM FZFG SCT001 OVC008
     FM100100 27010G19KT 3/4SM -SHSN SCT001 OVC008
     FM100300 27010G19KT 1 1/2SM -SHSN OVC010
     FM100500 28010G18KT 3SM -SHSN OVC015
     FM100800 27009KT 3SM -SHSN OVC015=

USA.gov is the U.S. government's official web portal to all federal, state and local government web resources and services.